sensor_id;sensor_type;location;lat;lon;timestamp;temperature;humidity
2729;DHT22;1372;47.956;7.830;2023-10-19T00:01:33;15.60;99.90
2729;DHT22;1372;47.956;7.830;2023-10-19T00:04:02;15.70;99.90
2729;DHT22;1372;47.956;7.830;2023-10-19T00:06:34;15.70;99.90
2729;DHT22;1372;47.956;7.830;2023-10-19T00:09:02;15.70;99.90
2729;DHT22;1372;47.956;7.830;2023-10-19T00:11:33;15.70;99.90
2729;DHT22;1372;47.956;7.830;2023-10-19T00:14:03;15.70;99.90
2729;DHT22;1372;47.956;7.830;2023-10-19T00:16:32;15.60;99.90
2729;DHT22;1372;47.956;7.830;2023-10-19T00:19:03;15.70;99.90
2729;DHT22;1372;47.956;7.830;2023-10-19T00:21:32;15.90;99.90
2729;DHT22;1372;47.956;7.830;2023-10-19T00:24:17;15.80;99.90
2729;DHT22;1372;47.956;7.830;2023-10-19T00:26:50;15.80;99.90
2729;DHT22;1372;47.956;7.830;2023-10-19T00:29:22;15.80;99.90
2729;DHT22;1372;47.956;7.830;2023-10-19T00:32:00;15.70;99.90
2729;DHT22;1372;47.956;7.830;2023-10-19T00:34:30;15.60;99.90
2729;DHT22;1372;47.956;7.830;2023-10-19T00:37:02;15.60;99.90
2729;DHT22;1372;47.956;7.830;2023-10-19T00:39:40;15.50;99.90
2729;DHT22;1372;47.956;7.830;2023-10-19T00:42:12;15.40;99.90
2729;DHT22;1372;47.956;7.830;2023-10-19T00:44:42;15.40;99.90
2729;DHT22;1372;47.956;7.830;2023-10-19T00:47:17;15.30;99.90
2729;DHT22;1372;47.956;7.830;2023-10-19T00:49:51;15.30;99.90
2729;DHT22;1372;47.956;7.830;2023-10-19T00:52:22;15.20;99.90
2729;DHT22;1372;47.956;7.830;2023-10-19T00:54:52;15.20;99.90
2729;DHT22;1372;47.956;7.830;2023-10-19T00:57:27;15.10;99.90
2729;DHT22;1372;47.956;7.830;2023-10-19T01:00:03;15.10;99.90
2729;DHT22;1372;47.956;7.830;2023-10-19T01:02:39;15.00;99.90
2729;DHT22;1372;47.956;7.830;2023-10-19T01:05:13;15.00;99.90
2729;DHT22;1372;47.956;7.830;2023-10-19T01:07:49;15.00;99.90
2729;DHT22;1372;47.956;7.830;2023-10-19T01:10:26;15.00;99.90
2729;DHT22;1372;47.956;7.830;2023-10-19T01:12:57;14.90;99.90
2729;DHT22;1372;47.956;7.830;2023-10-19T01:15:27;14.80;99.90
2729;DHT22;1372;47.956;7.830;2023-10-19T01:18:05;14.60;99.90
2729;DHT22;1372;47.956;7.830;2023-10-19T01:20:38;14.50;99.90
2729;DHT22;1372;47.956;7.830;2023-10-19T01:23:19;14.40;99.90
2729;DHT22;1372;47.956;7.830;2023-10-19T01:25:52;14.30;99.90
2729;DHT22;1372;47.956;7.830;2023-10-19T01:28:31;14.20;99.90
2729;DHT22;1372;47.956;7.830;2023-10-19T01:31:12;14.10;99.90
2729;DHT22;1372;47.956;7.830;2023-10-19T01:33:52;14.10;99.90
2729;DHT22;1372;47.956;7.830;2023-10-19T01:36:23;14.00;99.90
2729;DHT22;1372;47.956;7.830;2023-10-19T01:38:57;14.00;99.90
2729;DHT22;1372;47.956;7.830;2023-10-19T01:41:28;14.00;99.90
2729;DHT22;1372;47.956;7.830;2023-10-19T01:43:59;14.00;99.90
2729;DHT22;1372;47.956;7.830;2023-10-19T01:46:34;14.10;99.90
2729;DHT22;1372;47.956;7.830;2023-10-19T01:49:05;14.20;99.90
2729;DHT22;1372;47.956;7.830;2023-10-19T01:51:35;14.20;99.90
2729;DHT22;1372;47.956;7.830;2023-10-19T01:54:07;14.20;99.90
2729;DHT22;1372;47.956;7.830;2023-10-19T01:56:36;14.10;99.90
2729;DHT22;1372;47.956;7.830;2023-10-19T01:59:06;14.10;99.90
2729;DHT22;1372;47.956;7.830;2023-10-19T02:01:36;14.10;99.90
2729;DHT22;1372;47.956;7.830;2023-10-19T02:04:12;14.10;99.90
2729;DHT22;1372;47.956;7.830;2023-10-19T02:06:42;14.00;99.90
2729;DHT22;1372;47.956;7.830;2023-10-19T02:09:15;14.00;99.90
2729;DHT22;1372;47.956;7.830;2023-10-19T02:11:50;14.00;99.90
2729;DHT22;1372;47.956;7.830;2023-10-19T02:14:24;14.00;99.90
2729;DHT22;1372;47.956;7.830;2023-10-19T02:17:00;14.00;99.90
2729;DHT22;1372;47.956;7.830;2023-10-19T02:19:31;14.00;99.90
2729;DHT22;1372;47.956;7.830;2023-10-19T02:22:00;14.00;99.90
2729;DHT22;1372;47.956;7.830;2023-10-19T02:24:35;14.00;99.90
2729;DHT22;1372;47.956;7.830;2023-10-19T02:27:03;14.00;99.90
2729;DHT22;1372;47.956;7.830;2023-10-19T02:29:33;14.00;99.90
2729;DHT22;1372;47.956;7.830;2023-10-19T02:32:03;14.00;99.90
2729;DHT22;1372;47.956;7.830;2023-10-19T02:34:33;13.90;99.90
2729;DHT22;1372;47.956;7.830;2023-10-19T02:37:02;13.90;99.90
2729;DHT22;1372;47.956;7.830;2023-10-19T02:39:31;13.90;99.90
2729;DHT22;1372;47.956;7.830;2023-10-19T02:42:03;13.90;99.90
2729;DHT22;1372;47.956;7.830;2023-10-19T02:44:32;13.80;99.90
2729;DHT22;1372;47.956;7.830;2023-10-19T02:47:00;13.80;99.90
2729;DHT22;1372;47.956;7.830;2023-10-19T02:49:37;13.80;99.90
2729;DHT22;1372;47.956;7.830;2023-10-19T02:52:07;13.80;99.90
2729;DHT22;1372;47.956;7.830;2023-10-19T02:54:37;13.70;99.90
2729;DHT22;1372;47.956;7.830;2023-10-19T02:57:11;13.70;99.90
2729;DHT22;1372;47.956;7.830;2023-10-19T02:59:40;13.60;99.90
2729;DHT22;1372;47.956;7.830;2023-10-19T03:02:12;13.60;99.90
2729;DHT22;1372;47.956;7.830;2023-10-19T03:04:44;13.60;99.90
2729;DHT22;1372;47.956;7.830;2023-10-19T03:07:14;13.50;99.90
2729;DHT22;1372;47.956;7.830;2023-10-19T03:09:43;13.50;99.90
2729;DHT22;1372;47.956;7.830;2023-10-19T03:12:18;13.50;99.90
2729;DHT22;1372;47.956;7.830;2023-10-19T03:14:46;13.40;99.90
2729;DHT22;1372;47.956;7.830;2023-10-19T03:17:18;13.40;99.90
2729;DHT22;1372;47.956;7.830;2023-10-19T03:19:46;13.40;99.90
2729;DHT22;1372;47.956;7.830;2023-10-19T03:22:15;13.40;99.90
2729;DHT22;1372;47.956;7.830;2023-10-19T03:24:44;13.40;99.90
2729;DHT22;1372;47.956;7.830;2023-10-19T03:27:14;13.40;99.90
2729;DHT22;1372;47.956;7.830;2023-10-19T03:29:46;13.40;99.90
2729;DHT22;1372;47.956;7.830;2023-10-19T03:32:21;13.40;99.90
2729;DHT22;1372;47.956;7.830;2023-10-19T03:34:53;13.40;99.90
2729;DHT22;1372;47.956;7.830;2023-10-19T03:37:23;13.40;99.90
2729;DHT22;1372;47.956;7.830;2023-10-19T03:39:53;13.40;99.90
2729;DHT22;1372;47.956;7.830;2023-10-19T03:42:24;13.40;99.90
2729;DHT22;1372;47.956;7.830;2023-10-19T03:44:56;13.40;99.90
2729;DHT22;1372;47.956;7.830;2023-10-19T03:47:25;13.50;99.90
2729;DHT22;1372;47.956;7.830;2023-10-19T03:50:02;13.50;99.90
2729;DHT22;1372;47.956;7.830;2023-10-19T03:52:35;13.50;99.90
2729;DHT22;1372;47.956;7.830;2023-10-19T03:55:06;13.50;99.90
2729;DHT22;1372;47.956;7.830;2023-10-19T03:57:42;13.50;99.90
2729;DHT22;1372;47.956;7.830;2023-10-19T04:00:16;13.50;99.90
2729;DHT22;1372;47.956;7.830;2023-10-19T04:02:46;13.50;99.90
2729;DHT22;1372;47.956;7.830;2023-10-19T04:05:17;13.60;99.90
2729;DHT22;1372;47.956;7.830;2023-10-19T04:07:50;13.60;99.90
2729;DHT22;1372;47.956;7.830;2023-10-19T04:10:24;13.60;99.90
2729;DHT22;1372;47.956;7.830;2023-10-19T04:13:06;13.60;99.90
2729;DHT22;1372;47.956;7.830;2023-10-19T04:15:43;13.50;99.90
2729;DHT22;1372;47.956;7.830;2023-10-19T04:18:12;13.60;99.90
2729;DHT22;1372;47.956;7.830;2023-10-19T04:20:41;13.50;99.90
2729;DHT22;1372;47.956;7.830;2023-10-19T04:23:28;13.50;99.90
2729;DHT22;1372;47.956;7.830;2023-10-19T04:26:02;13.60;99.90
2729;DHT22;1372;47.956;7.830;2023-10-19T04:28:39;13.60;99.90
2729;DHT22;1372;47.956;7.830;2023-10-19T04:31:13;13.70;99.90
2729;DHT22;1372;47.956;7.830;2023-10-19T04:33:43;13.60;99.90
2729;DHT22;1372;47.956;7.830;2023-10-19T04:36:15;13.60;99.90
2729;DHT22;1372;47.956;7.830;2023-10-19T04:38:48;13.60;99.90
2729;DHT22;1372;47.956;7.830;2023-10-19T04:41:19;13.60;99.90
2729;DHT22;1372;47.956;7.830;2023-10-19T04:43:49;13.60;99.90
2729;DHT22;1372;47.956;7.830;2023-10-19T04:46:19;13.60;99.90
2729;DHT22;1372;47.956;7.830;2023-10-19T04:48:49;13.60;99.90
2729;DHT22;1372;47.956;7.830;2023-10-19T04:51:19;13.60;99.90
2729;DHT22;1372;47.956;7.830;2023-10-19T04:53:50;13.60;99.90
2729;DHT22;1372;47.956;7.830;2023-10-19T04:56:19;13.60;99.90
2729;DHT22;1372;47.956;7.830;2023-10-19T04:58:48;13.60;99.90
2729;DHT22;1372;47.956;7.830;2023-10-19T05:01:19;13.60;99.90
2729;DHT22;1372;47.956;7.830;2023-10-19T05:03:47;13.60;99.90
2729;DHT22;1372;47.956;7.830;2023-10-19T05:06:19;13.60;99.90
2729;DHT22;1372;47.956;7.830;2023-10-19T05:08:51;13.60;99.90
2729;DHT22;1372;47.956;7.830;2023-10-19T05:11:20;13.60;99.90
2729;DHT22;1372;47.956;7.830;2023-10-19T05:13:49;13.60;99.90
2729;DHT22;1372;47.956;7.830;2023-10-19T05:16:20;13.60;99.90
2729;DHT22;1372;47.956;7.830;2023-10-19T05:18:49;13.60;99.90
2729;DHT22;1372;47.956;7.830;2023-10-19T05:21:17;13.60;99.90
2729;DHT22;1372;47.956;7.830;2023-10-19T05:23:46;13.60;99.90
2729;DHT22;1372;47.956;7.830;2023-10-19T05:26:15;13.60;99.90
2729;DHT22;1372;47.956;7.830;2023-10-19T05:28:45;13.60;99.90
2729;DHT22;1372;47.956;7.830;2023-10-19T05:31:20;13.60;99.90
2729;DHT22;1372;47.956;7.830;2023-10-19T05:33:49;13.60;99.90
2729;DHT22;1372;47.956;7.830;2023-10-19T05:36:19;13.60;99.90
2729;DHT22;1372;47.956;7.830;2023-10-19T05:38:48;13.60;99.90
2729;DHT22;1372;47.956;7.830;2023-10-19T05:41:18;13.60;99.90
2729;DHT22;1372;47.956;7.830;2023-10-19T05:43:48;13.50;99.90
2729;DHT22;1372;47.956;7.830;2023-10-19T05:46:17;13.50;99.90
2729;DHT22;1372;47.956;7.830;2023-10-19T05:48:49;13.50;99.90
2729;DHT22;1372;47.956;7.830;2023-10-19T05:51:18;13.40;99.90
2729;DHT22;1372;47.956;7.830;2023-10-19T05:53:47;13.40;99.90
2729;DHT22;1372;47.956;7.830;2023-10-19T05:56:16;13.40;99.90
2729;DHT22;1372;47.956;7.830;2023-10-19T05:58:47;13.40;99.90
2729;DHT22;1372;47.956;7.830;2023-10-19T06:01:19;13.30;99.90
2729;DHT22;1372;47.956;7.830;2023-10-19T06:03:49;13.30;99.90
2729;DHT22;1372;47.956;7.830;2023-10-19T06:06:31;13.30;99.90
2729;DHT22;1372;47.956;7.830;2023-10-19T06:09:00;13.30;99.90
2729;DHT22;1372;47.956;7.830;2023-10-19T06:11:29;13.30;99.90
2729;DHT22;1372;47.956;7.830;2023-10-19T06:13:59;13.30;99.90
2729;DHT22;1372;47.956;7.830;2023-10-19T06:16:30;13.30;99.90
2729;DHT22;1372;47.956;7.830;2023-10-19T06:19:02;13.30;99.90
2729;DHT22;1372;47.956;7.830;2023-10-19T06:21:33;13.30;99.90
2729;DHT22;1372;47.956;7.830;2023-10-19T06:24:02;13.30;99.90
2729;DHT22;1372;47.956;7.830;2023-10-19T06:26:31;13.20;99.90
2729;DHT22;1372;47.956;7.830;2023-10-19T06:29:00;13.20;99.90
2729;DHT22;1372;47.956;7.830;2023-10-19T06:31:32;13.30;99.90
2729;DHT22;1372;47.956;7.830;2023-10-19T06:34:03;13.20;99.90
2729;DHT22;1372;47.956;7.830;2023-10-19T06:36:32;13.30;99.90
2729;DHT22;1372;47.956;7.830;2023-10-19T06:39:02;13.30;99.90
2729;DHT22;1372;47.956;7.830;2023-10-19T06:41:33;13.30;99.90
2729;DHT22;1372;47.956;7.830;2023-10-19T06:44:02;13.30;99.90
2729;DHT22;1372;47.956;7.830;2023-10-19T06:46:33;13.30;99.90
2729;DHT22;1372;47.956;7.830;2023-10-19T06:49:03;13.30;99.90
2729;DHT22;1372;47.956;7.830;2023-10-19T06:51:32;13.30;99.90
2729;DHT22;1372;47.956;7.830;2023-10-19T06:54:01;13.40;99.90
2729;DHT22;1372;47.956;7.830;2023-10-19T06:56:31;13.40;99.90
2729;DHT22;1372;47.956;7.830;2023-10-19T06:59:00;13.40;99.90
2729;DHT22;1372;47.956;7.830;2023-10-19T07:01:28;13.40;99.90
2729;DHT22;1372;47.956;7.830;2023-10-19T07:04:01;13.50;99.90
2729;DHT22;1372;47.956;7.830;2023-10-19T07:06:30;13.50;99.90
2729;DHT22;1372;47.956;7.830;2023-10-19T07:08:59;13.50;99.90
2729;DHT22;1372;47.956;7.830;2023-10-19T07:11:31;13.50;99.90
2729;DHT22;1372;47.956;7.830;2023-10-19T07:14:01;13.50;99.90
2729;DHT22;1372;47.956;7.830;2023-10-19T07:16:34;13.50;99.90
2729;DHT22;1372;47.956;7.830;2023-10-19T07:19:07;13.50;99.90
2729;DHT22;1372;47.956;7.830;2023-10-19T07:21:36;13.50;99.90
2729;DHT22;1372;47.956;7.830;2023-10-19T07:24:11;13.60;99.90
2729;DHT22;1372;47.956;7.830;2023-10-19T07:26:40;13.60;99.90
2729;DHT22;1372;47.956;7.830;2023-10-19T07:29:19;13.60;99.90
2729;DHT22;1372;47.956;7.830;2023-10-19T07:31:48;13.60;99.90
2729;DHT22;1372;47.956;7.830;2023-10-19T07:34:20;13.70;99.90
2729;DHT22;1372;47.956;7.830;2023-10-19T07:36:52;13.70;99.90
2729;DHT22;1372;47.956;7.830;2023-10-19T07:39:22;13.70;99.90
2729;DHT22;1372;47.956;7.830;2023-10-19T07:41:51;13.80;99.90
2729;DHT22;1372;47.956;7.830;2023-10-19T07:44:22;13.80;99.90
2729;DHT22;1372;47.956;7.830;2023-10-19T07:46:51;13.90;99.90
2729;DHT22;1372;47.956;7.830;2023-10-19T07:49:22;13.90;99.90
2729;DHT22;1372;47.956;7.830;2023-10-19T07:51:52;14.00;99.90
2729;DHT22;1372;47.956;7.830;2023-10-19T07:54:25;14.00;99.90
2729;DHT22;1372;47.956;7.830;2023-10-19T07:56:54;14.10;99.90
2729;DHT22;1372;47.956;7.830;2023-10-19T07:59:24;14.10;99.90
2729;DHT22;1372;47.956;7.830;2023-10-19T08:01:54;14.20;99.90
2729;DHT22;1372;47.956;7.830;2023-10-19T08:04:25;14.20;99.90
2729;DHT22;1372;47.956;7.830;2023-10-19T08:06:58;14.20;99.90
2729;DHT22;1372;47.956;7.830;2023-10-19T08:09:27;14.30;99.90
2729;DHT22;1372;47.956;7.830;2023-10-19T08:11:59;14.20;99.90
2729;DHT22;1372;47.956;7.830;2023-10-19T08:14:29;14.20;99.90
2729;DHT22;1372;47.956;7.830;2023-10-19T08:16:58;14.20;99.90
2729;DHT22;1372;47.956;7.830;2023-10-19T08:19:29;14.20;99.90
2729;DHT22;1372;47.956;7.830;2023-10-19T08:21:59;14.20;99.90
2729;DHT22;1372;47.956;7.830;2023-10-19T08:24:28;14.20;99.90
2729;DHT22;1372;47.956;7.830;2023-10-19T08:26:59;14.20;99.90
2729;DHT22;1372;47.956;7.830;2023-10-19T08:29:27;14.30;99.90
2729;DHT22;1372;47.956;7.830;2023-10-19T08:31:58;14.30;99.90
2729;DHT22;1372;47.956;7.830;2023-10-19T08:34:27;14.30;99.90
2729;DHT22;1372;47.956;7.830;2023-10-19T08:36:58;14.30;99.90
2729;DHT22;1372;47.956;7.830;2023-10-19T08:39:27;14.40;99.90
2729;DHT22;1372;47.956;7.830;2023-10-19T08:42:03;14.50;99.90
2729;DHT22;1372;47.956;7.830;2023-10-19T08:44:33;14.60;99.90
2729;DHT22;1372;47.956;7.830;2023-10-19T08:47:03;14.60;99.90
2729;DHT22;1372;47.956;7.830;2023-10-19T08:49:34;14.50;99.90
2729;DHT22;1372;47.956;7.830;2023-10-19T08:52:05;14.50;99.90
2729;DHT22;1372;47.956;7.830;2023-10-19T08:54:36;14.60;99.90
2729;DHT22;1372;47.956;7.830;2023-10-19T08:57:05;14.60;99.90
2729;DHT22;1372;47.956;7.830;2023-10-19T08:59:34;14.80;99.90
2729;DHT22;1372;47.956;7.830;2023-10-19T09:02:05;14.80;99.90
2729;DHT22;1372;47.956;7.830;2023-10-19T09:04:42;14.90;99.90
2729;DHT22;1372;47.956;7.830;2023-10-19T09:07:12;14.90;99.90
2729;DHT22;1372;47.956;7.830;2023-10-19T09:09:41;14.90;99.90
2729;DHT22;1372;47.956;7.830;2023-10-19T09:12:10;15.10;99.90
2729;DHT22;1372;47.956;7.830;2023-10-19T09:14:41;15.20;99.90
2729;DHT22;1372;47.956;7.830;2023-10-19T09:17:12;15.10;99.90
2729;DHT22;1372;47.956;7.830;2023-10-19T09:19:44;15.20;99.90
2729;DHT22;1372;47.956;7.830;2023-10-19T09:22:14;15.20;99.90
2729;DHT22;1372;47.956;7.830;2023-10-19T09:24:46;15.20;99.90
2729;DHT22;1372;47.956;7.830;2023-10-19T09:27:16;15.10;99.90
2729;DHT22;1372;47.956;7.830;2023-10-19T09:29:46;15.10;99.90
2729;DHT22;1372;47.956;7.830;2023-10-19T09:32:16;15.20;99.90
2729;DHT22;1372;47.956;7.830;2023-10-19T09:34:48;15.20;99.90
2729;DHT22;1372;47.956;7.830;2023-10-19T09:37:20;15.30;99.90
2729;DHT22;1372;47.956;7.830;2023-10-19T09:39:52;15.20;99.90
2729;DHT22;1372;47.956;7.830;2023-10-19T09:42:21;15.20;99.90
2729;DHT22;1372;47.956;7.830;2023-10-19T09:44:59;15.10;99.90
2729;DHT22;1372;47.956;7.830;2023-10-19T09:47:41;15.20;99.90
2729;DHT22;1372;47.956;7.830;2023-10-19T09:50:20;15.30;99.90
2729;DHT22;1372;47.956;7.830;2023-10-19T09:52:49;15.50;99.90
2729;DHT22;1372;47.956;7.830;2023-10-19T09:55:22;15.60;99.90
2729;DHT22;1372;47.956;7.830;2023-10-19T09:57:59;15.50;99.90
2729;DHT22;1372;47.956;7.830;2023-10-19T10:00:33;15.50;99.90
2729;DHT22;1372;47.956;7.830;2023-10-19T10:03:03;15.60;99.90
2729;DHT22;1372;47.956;7.830;2023-10-19T10:05:49;15.60;99.90
2729;DHT22;1372;47.956;7.830;2023-10-19T10:08:31;15.60;99.90
2729;DHT22;1372;47.956;7.830;2023-10-19T10:11:22;15.60;99.90
2729;DHT22;1372;47.956;7.830;2023-10-19T10:13:56;15.60;99.90
2729;DHT22;1372;47.956;7.830;2023-10-19T10:16:27;15.60;99.90
2729;DHT22;1372;47.956;7.830;2023-10-19T10:19:00;15.60;99.90
2729;DHT22;1372;47.956;7.830;2023-10-19T10:21:33;15.60;99.90
2729;DHT22;1372;47.956;7.830;2023-10-19T10:24:05;15.70;99.90
2729;DHT22;1372;47.956;7.830;2023-10-19T10:26:57;15.70;99.90
2729;DHT22;1372;47.956;7.830;2023-10-19T10:29:27;15.70;99.90
2729;DHT22;1372;47.956;7.830;2023-10-19T10:31:58;15.70;99.90
2729;DHT22;1372;47.956;7.830;2023-10-19T10:34:43;15.80;99.90
2729;DHT22;1372;47.956;7.830;2023-10-19T10:37:14;15.90;99.90
2729;DHT22;1372;47.956;7.830;2023-10-19T10:39:45;16.00;99.90
2729;DHT22;1372;47.956;7.830;2023-10-19T10:42:16;16.10;99.90
2729;DHT22;1372;47.956;7.830;2023-10-19T10:44:46;16.00;99.90
2729;DHT22;1372;47.956;7.830;2023-10-19T10:47:21;16.00;99.90
2729;DHT22;1372;47.956;7.830;2023-10-19T10:49:53;16.10;99.90
2729;DHT22;1372;47.956;7.830;2023-10-19T10:52:32;16.30;99.90
2729;DHT22;1372;47.956;7.830;2023-10-19T10:55:07;16.30;99.90
2729;DHT22;1372;47.956;7.830;2023-10-19T10:57:41;16.50;99.90
2729;DHT22;1372;47.956;7.830;2023-10-19T11:00:14;16.50;99.90
2729;DHT22;1372;47.956;7.830;2023-10-19T11:02:45;16.40;99.90
2729;DHT22;1372;47.956;7.830;2023-10-19T11:05:16;16.40;99.90
2729;DHT22;1372;47.956;7.830;2023-10-19T11:08:09;16.40;99.90
2729;DHT22;1372;47.956;7.830;2023-10-19T11:10:41;16.50;99.90
2729;DHT22;1372;47.956;7.830;2023-10-19T11:13:15;16.50;99.90
2729;DHT22;1372;47.956;7.830;2023-10-19T11:15:49;16.50;99.90
2729;DHT22;1372;47.956;7.830;2023-10-19T11:18:30;16.60;99.90
2729;DHT22;1372;47.956;7.830;2023-10-19T11:21:02;16.60;99.90
2729;DHT22;1372;47.956;7.830;2023-10-19T11:23:43;16.50;99.90
2729;DHT22;1372;47.956;7.830;2023-10-19T11:26:17;16.50;99.90
2729;DHT22;1372;47.956;7.830;2023-10-19T11:28:57;16.60;99.90
2729;DHT22;1372;47.956;7.830;2023-10-19T11:31:28;16.50;99.90
2729;DHT22;1372;47.956;7.830;2023-10-19T11:34:05;16.60;99.90
2729;DHT22;1372;47.956;7.830;2023-10-19T11:36:39;16.60;99.90
2729;DHT22;1372;47.956;7.830;2023-10-19T11:39:10;16.50;99.90
2729;DHT22;1372;47.956;7.830;2023-10-19T11:41:39;16.60;99.90
2729;DHT22;1372;47.956;7.830;2023-10-19T11:44:08;16.60;99.90
2729;DHT22;1372;47.956;7.830;2023-10-19T11:46:40;16.60;99.90
2729;DHT22;1372;47.956;7.830;2023-10-19T11:49:08;16.60;99.90
2729;DHT22;1372;47.956;7.830;2023-10-19T11:51:37;16.70;99.90
2729;DHT22;1372;47.956;7.830;2023-10-19T11:54:06;16.60;99.90
2729;DHT22;1372;47.956;7.830;2023-10-19T11:56:37;16.50;99.90
2729;DHT22;1372;47.956;7.830;2023-10-19T11:59:08;16.40;99.90
2729;DHT22;1372;47.956;7.830;2023-10-19T12:01:39;16.30;99.90
2729;DHT22;1372;47.956;7.830;2023-10-19T12:04:09;16.20;99.90
2729;DHT22;1372;47.956;7.830;2023-10-19T12:06:38;16.20;99.90
2729;DHT22;1372;47.956;7.830;2023-10-19T12:09:07;16.20;99.90
2729;DHT22;1372;47.956;7.830;2023-10-19T12:11:46;16.20;99.90
2729;DHT22;1372;47.956;7.830;2023-10-19T12:14:15;16.20;99.90
2729;DHT22;1372;47.956;7.830;2023-10-19T12:16:44;16.10;99.90
2729;DHT22;1372;47.956;7.830;2023-10-19T12:19:13;16.10;99.90
2729;DHT22;1372;47.956;7.830;2023-10-19T12:21:44;16.10;99.90
2729;DHT22;1372;47.956;7.830;2023-10-19T12:24:13;16.10;99.90
2729;DHT22;1372;47.956;7.830;2023-10-19T12:26:46;16.20;99.90
2729;DHT22;1372;47.956;7.830;2023-10-19T12:29:15;16.20;99.90
2729;DHT22;1372;47.956;7.830;2023-10-19T12:31:45;16.20;99.90
2729;DHT22;1372;47.956;7.830;2023-10-19T12:34:16;16.20;99.90
2729;DHT22;1372;47.956;7.830;2023-10-19T12:36:45;16.20;99.90
2729;DHT22;1372;47.956;7.830;2023-10-19T12:39:15;16.10;99.90
2729;DHT22;1372;47.956;7.830;2023-10-19T12:42:05;16.00;99.90
2729;DHT22;1372;47.956;7.830;2023-10-19T12:44:34;16.00;99.90
2729;DHT22;1372;47.956;7.830;2023-10-19T12:47:09;15.90;99.90
2729;DHT22;1372;47.956;7.830;2023-10-19T12:49:40;15.90;99.90
2729;DHT22;1372;47.956;7.830;2023-10-19T12:52:09;15.80;99.90
2729;DHT22;1372;47.956;7.830;2023-10-19T12:54:38;15.80;99.90
2729;DHT22;1372;47.956;7.830;2023-10-19T12:57:12;15.90;99.90
2729;DHT22;1372;47.956;7.830;2023-10-19T12:59:50;15.90;99.90
2729;DHT22;1372;47.956;7.830;2023-10-19T13:02:21;15.90;99.90
2729;DHT22;1372;47.956;7.830;2023-10-19T13:04:51;15.90;99.90
2729;DHT22;1372;47.956;7.830;2023-10-19T13:07:20;15.90;99.90
2729;DHT22;1372;47.956;7.830;2023-10-19T13:09:55;15.90;99.90
2729;DHT22;1372;47.956;7.830;2023-10-19T13:12:26;15.90;99.90
2729;DHT22;1372;47.956;7.830;2023-10-19T13:14:55;15.80;99.90
2729;DHT22;1372;47.956;7.830;2023-10-19T13:17:24;15.90;99.90
2729;DHT22;1372;47.956;7.830;2023-10-19T13:19:53;15.90;99.90
2729;DHT22;1372;47.956;7.830;2023-10-19T13:22:26;15.90;99.90
2729;DHT22;1372;47.956;7.830;2023-10-19T13:24:57;15.90;99.90
2729;DHT22;1372;47.956;7.830;2023-10-19T13:27:28;15.90;99.90
2729;DHT22;1372;47.956;7.830;2023-10-19T13:30:01;15.90;99.90
2729;DHT22;1372;47.956;7.830;2023-10-19T13:32:30;15.90;99.90
2729;DHT22;1372;47.956;7.830;2023-10-19T13:35:00;16.00;99.90
2729;DHT22;1372;47.956;7.830;2023-10-19T13:37:31;16.00;99.90
2729;DHT22;1372;47.956;7.830;2023-10-19T13:40:04;16.00;99.90
2729;DHT22;1372;47.956;7.830;2023-10-19T13:42:36;16.00;99.90
2729;DHT22;1372;47.956;7.830;2023-10-19T13:45:08;16.00;99.90
2729;DHT22;1372;47.956;7.830;2023-10-19T13:47:42;16.10;99.90
2729;DHT22;1372;47.956;7.830;2023-10-19T13:50:13;16.10;99.90
2729;DHT22;1372;47.956;7.830;2023-10-19T13:52:42;16.10;99.90
2729;DHT22;1372;47.956;7.830;2023-10-19T13:55:11;16.10;99.90
2729;DHT22;1372;47.956;7.830;2023-10-19T13:57:46;16.10;99.90
2729;DHT22;1372;47.956;7.830;2023-10-19T14:00:17;16.10;99.90
2729;DHT22;1372;47.956;7.830;2023-10-19T14:02:52;16.10;99.90
2729;DHT22;1372;47.956;7.830;2023-10-19T14:05:24;16.10;99.90
2729;DHT22;1372;47.956;7.830;2023-10-19T14:07:53;16.10;99.90
2729;DHT22;1372;47.956;7.830;2023-10-19T14:10:24;16.10;99.90
2729;DHT22;1372;47.956;7.830;2023-10-19T14:12:56;16.20;99.90
2729;DHT22;1372;47.956;7.830;2023-10-19T14:15:26;16.10;99.90
2729;DHT22;1372;47.956;7.830;2023-10-19T14:17:56;16.10;99.90
2729;DHT22;1372;47.956;7.830;2023-10-19T14:20:29;16.20;99.90
2729;DHT22;1372;47.956;7.830;2023-10-19T14:23:02;16.20;99.90
2729;DHT22;1372;47.956;7.830;2023-10-19T14:25:35;16.20;99.90
2729;DHT22;1372;47.956;7.830;2023-10-19T14:28:07;16.10;99.90
2729;DHT22;1372;47.956;7.830;2023-10-19T14:30:37;16.10;99.90
2729;DHT22;1372;47.956;7.830;2023-10-19T14:33:06;16.10;99.90
2729;DHT22;1372;47.956;7.830;2023-10-19T14:35:38;16.10;99.90
2729;DHT22;1372;47.956;7.830;2023-10-19T14:38:10;16.00;99.90
2729;DHT22;1372;47.956;7.830;2023-10-19T14:40:41;16.00;99.90
2729;DHT22;1372;47.956;7.830;2023-10-19T14:43:13;16.00;99.90
2729;DHT22;1372;47.956;7.830;2023-10-19T14:45:42;16.00;99.90
2729;DHT22;1372;47.956;7.830;2023-10-19T14:48:11;16.00;99.90
2729;DHT22;1372;47.956;7.830;2023-10-19T14:50:42;16.00;99.90
2729;DHT22;1372;47.956;7.830;2023-10-19T14:53:11;16.00;99.90
2729;DHT22;1372;47.956;7.830;2023-10-19T14:55:43;16.00;99.90
2729;DHT22;1372;47.956;7.830;2023-10-19T14:58:15;15.90;99.90
2729;DHT22;1372;47.956;7.830;2023-10-19T15:00:44;15.90;99.90
2729;DHT22;1372;47.956;7.830;2023-10-19T15:03:16;15.90;99.90
2729;DHT22;1372;47.956;7.830;2023-10-19T15:05:50;15.90;99.90
2729;DHT22;1372;47.956;7.830;2023-10-19T15:08:20;15.80;99.90
2729;DHT22;1372;47.956;7.830;2023-10-19T15:10:53;15.80;99.90
2729;DHT22;1372;47.956;7.830;2023-10-19T15:13:24;15.80;99.90
2729;DHT22;1372;47.956;7.830;2023-10-19T15:15:55;15.80;99.90
2729;DHT22;1372;47.956;7.830;2023-10-19T15:18:24;15.80;99.90
2729;DHT22;1372;47.956;7.830;2023-10-19T15:20:53;15.70;99.90
2729;DHT22;1372;47.956;7.830;2023-10-19T15:23:22;15.70;99.90
2729;DHT22;1372;47.956;7.830;2023-10-19T15:25:53;15.70;99.90
2729;DHT22;1372;47.956;7.830;2023-10-19T15:28:24;15.70;99.90
2729;DHT22;1372;47.956;7.830;2023-10-19T15:30:52;15.70;99.90
2729;DHT22;1372;47.956;7.830;2023-10-19T15:33:21;15.70;99.90
2729;DHT22;1372;47.956;7.830;2023-10-19T15:35:50;15.70;99.90
2729;DHT22;1372;47.956;7.830;2023-10-19T15:38:20;15.70;99.90
2729;DHT22;1372;47.956;7.830;2023-10-19T15:40:49;15.70;99.90
2729;DHT22;1372;47.956;7.830;2023-10-19T15:43:18;15.60;99.90
2729;DHT22;1372;47.956;7.830;2023-10-19T15:45:49;15.60;99.90
2729;DHT22;1372;47.956;7.830;2023-10-19T15:48:18;15.60;99.90
2729;DHT22;1372;47.956;7.830;2023-10-19T15:50:46;15.60;99.90
2729;DHT22;1372;47.956;7.830;2023-10-19T15:53:16;15.60;99.90
2729;DHT22;1372;47.956;7.830;2023-10-19T15:55:45;15.60;99.90
2729;DHT22;1372;47.956;7.830;2023-10-19T15:58:14;15.60;99.90
2729;DHT22;1372;47.956;7.830;2023-10-19T16:00:45;15.60;99.90
2729;DHT22;1372;47.956;7.830;2023-10-19T16:03:16;15.60;99.90
2729;DHT22;1372;47.956;7.830;2023-10-19T16:05:45;15.50;99.90
2729;DHT22;1372;47.956;7.830;2023-10-19T16:08:14;15.50;99.90
2729;DHT22;1372;47.956;7.830;2023-10-19T16:10:42;15.50;99.90
2729;DHT22;1372;47.956;7.830;2023-10-19T16:13:12;15.50;99.90
2729;DHT22;1372;47.956;7.830;2023-10-19T16:15:41;15.50;99.90
2729;DHT22;1372;47.956;7.830;2023-10-19T16:18:10;15.50;99.90
2729;DHT22;1372;47.956;7.830;2023-10-19T16:20:43;15.50;99.90
2729;DHT22;1372;47.956;7.830;2023-10-19T16:23:12;15.50;99.90
2729;DHT22;1372;47.956;7.830;2023-10-19T16:25:41;15.40;99.90
2729;DHT22;1372;47.956;7.830;2023-10-19T16:28:10;15.40;99.90
2729;DHT22;1372;47.956;7.830;2023-10-19T16:30:39;15.40;99.90